sensor_id;sensor_type;location;lat;lon;timestamp;temperature;humidity
1355;DHT22;671;48.972;9.276;2023-03-23T00:01:22;13.50;1.00
1355;DHT22;671;48.972;9.276;2023-03-23T00:03:52;13.40;1.00
1355;DHT22;671;48.972;9.276;2023-03-23T00:06:20;13.50;1.00
1355;DHT22;671;48.972;9.276;2023-03-23T00:08:48;13.50;13.40
1355;DHT22;671;48.972;9.276;2023-03-23T00:11:18;13.50;1.00
1355;DHT22;671;48.972;9.276;2023-03-23T00:13:47;13.50;1.00
1355;DHT22;671;48.972;9.276;2023-03-23T00:16:18;13.60;1.00
1355;DHT22;671;48.972;9.276;2023-03-23T00:18:50;13.50;1.00
1355;DHT22;671;48.972;9.276;2023-03-23T00:21:19;13.50;1.00
1355;DHT22;671;48.972;9.276;2023-03-23T00:23:46;13.50;1.00
1355;DHT22;671;48.972;9.276;2023-03-23T00:26:12;13.50;1.00
1355;DHT22;671;48.972;9.276;2023-03-23T00:28:39;13.50;1.00
1355;DHT22;671;48.972;9.276;2023-03-23T00:31:08;13.50;1.00
1355;DHT22;671;48.972;9.276;2023-03-23T00:33:37;13.50;1.00
1355;DHT22;671;48.972;9.276;2023-03-23T00:36:11;13.50;1.00
1355;DHT22;671;48.972;9.276;2023-03-23T00:38:39;13.50;99.90
1355;DHT22;671;48.972;9.276;2023-03-23T00:41:06;13.50;99.90
1355;DHT22;671;48.972;9.276;2023-03-23T00:43:33;13.60;1.00
1355;DHT22;671;48.972;9.276;2023-03-23T00:46:03;13.60;1.00
1355;DHT22;671;48.972;9.276;2023-03-23T00:48:37;13.60;1.00
1355;DHT22;671;48.972;9.276;2023-03-23T00:51:11;13.70;99.90
1355;DHT22;671;48.972;9.276;2023-03-23T00:53:39;13.70;1.00
1355;DHT22;671;48.972;9.276;2023-03-23T00:56:07;13.80;1.00
1355;DHT22;671;48.972;9.276;2023-03-23T00:58:34;13.80;1.00
1355;DHT22;671;48.972;9.276;2023-03-23T01:01:01;13.90;1.00
1355;DHT22;671;48.972;9.276;2023-03-23T01:03:28;13.90;1.00
1355;DHT22;671;48.972;9.276;2023-03-23T01:05:55;14.10;99.90
1355;DHT22;671;48.972;9.276;2023-03-23T01:08:22;14.10;99.90
1355;DHT22;671;48.972;9.276;2023-03-23T01:10:50;14.20;99.90
1355;DHT22;671;48.972;9.276;2023-03-23T01:13:16;14.20;99.90
1355;DHT22;671;48.972;9.276;2023-03-23T01:15:43;14.30;99.90
1355;DHT22;671;48.972;9.276;2023-03-23T01:18:09;14.30;99.90
1355;DHT22;671;48.972;9.276;2023-03-23T01:20:37;14.40;99.90
1355;DHT22;671;48.972;9.276;2023-03-23T01:23:03;14.40;72.70
1355;DHT22;671;48.972;9.276;2023-03-23T01:25:34;14.40;87.10
1355;DHT22;671;48.972;9.276;2023-03-23T01:28:01;14.40;99.90
1355;DHT22;671;48.972;9.276;2023-03-23T01:30:27;14.30;99.90
1355;DHT22;671;48.972;9.276;2023-03-23T01:32:54;14.30;99.90
1355;DHT22;671;48.972;9.276;2023-03-23T01:35:21;14.30;99.90
1355;DHT22;671;48.972;9.276;2023-03-23T01:37:48;14.30;99.90
1355;DHT22;671;48.972;9.276;2023-03-23T01:40:15;14.30;99.90
1355;DHT22;671;48.972;9.276;2023-03-23T01:42:42;14.20;99.90
1355;DHT22;671;48.972;9.276;2023-03-23T01:45:25;14.20;99.90
1355;DHT22;671;48.972;9.276;2023-03-23T01:47:59;14.20;99.90
1355;DHT22;671;48.972;9.276;2023-03-23T01:50:30;14.20;99.90
1355;DHT22;671;48.972;9.276;2023-03-23T01:53:02;14.10;99.90
1355;DHT22;671;48.972;9.276;2023-03-23T01:55:32;14.20;14.10
1355;DHT22;671;48.972;9.276;2023-03-23T01:57:59;14.10;98.50
1355;DHT22;671;48.972;9.276;2023-03-23T02:00:26;14.10;99.90
1355;DHT22;671;48.972;9.276;2023-03-23T02:02:53;14.10;99.90
1355;DHT22;671;48.972;9.276;2023-03-23T02:05:34;14.10;99.90
1355;DHT22;671;48.972;9.276;2023-03-23T02:08:04;14.10;99.90
1355;DHT22;671;48.972;9.276;2023-03-23T02:10:32;14.10;30.00
1355;DHT22;671;48.972;9.276;2023-03-23T02:13:01;14.10;1.00
1355;DHT22;671;48.972;9.276;2023-03-23T02:26:59;14.10;1.00
1355;DHT22;671;48.972;9.276;2023-03-23T02:32:49;14.00;1.00
1355;DHT22;671;48.972;9.276;2023-03-23T02:35:34;14.10;1.00
1355;DHT22;671;48.972;9.276;2023-03-23T02:38:08;14.00;1.00
1355;DHT22;671;48.972;9.276;2023-03-23T02:40:55;14.00;1.00
1355;DHT22;671;48.972;9.276;2023-03-23T02:43:25;14.00;1.00
1355;DHT22;671;48.972;9.276;2023-03-23T02:45:53;14.00;1.00
1355;DHT22;671;48.972;9.276;2023-03-23T02:48:22;14.00;1.00
1355;DHT22;671;48.972;9.276;2023-03-23T02:50:52;14.00;1.00
1355;DHT22;671;48.972;9.276;2023-03-23T02:53:23;13.90;1.00
1355;DHT22;671;48.972;9.276;2023-03-23T02:55:52;13.90;1.00
1355;DHT22;671;48.972;9.276;2023-03-23T02:58:19;13.90;1.00
1355;DHT22;671;48.972;9.276;2023-03-23T03:00:48;13.90;1.00
1355;DHT22;671;48.972;9.276;2023-03-23T03:03:19;13.90;1.00
1355;DHT22;671;48.972;9.276;2023-03-23T03:09:00;14.00;1.00
1355;DHT22;671;48.972;9.276;2023-03-23T03:11:30;14.00;1.00
1355;DHT22;671;48.972;9.276;2023-03-23T03:14:07;14.00;1.00
1355;DHT22;671;48.972;9.276;2023-03-23T03:19:20;14.00;1.00
1355;DHT22;671;48.972;9.276;2023-03-23T03:21:50;14.00;1.00
1355;DHT22;671;48.972;9.276;2023-03-23T03:24:20;14.10;1.00
1355;DHT22;671;48.972;9.276;2023-03-23T03:26:50;14.10;1.00
1355;DHT22;671;48.972;9.276;2023-03-23T03:29:21;14.00;1.00
1355;DHT22;671;48.972;9.276;2023-03-23T03:31:51;14.10;1.00
1355;DHT22;671;48.972;9.276;2023-03-23T03:34:21;14.10;1.00
1355;DHT22;671;48.972;9.276;2023-03-23T03:36:53;14.10;1.00
1355;DHT22;671;48.972;9.276;2023-03-23T03:39:20;14.10;1.00
1355;DHT22;671;48.972;9.276;2023-03-23T03:41:48;14.10;1.00
1355;DHT22;671;48.972;9.276;2023-03-23T03:44:14;14.20;1.00
1355;DHT22;671;48.972;9.276;2023-03-23T03:46:41;14.20;1.00
1355;DHT22;671;48.972;9.276;2023-03-23T03:49:10;14.20;1.00
1355;DHT22;671;48.972;9.276;2023-03-23T03:51:39;14.20;1.00
1355;DHT22;671;48.972;9.276;2023-03-23T03:54:06;14.20;1.00
1355;DHT22;671;48.972;9.276;2023-03-23T03:56:33;14.20;1.00
1355;DHT22;671;48.972;9.276;2023-03-23T03:59:03;14.20;1.00
1355;DHT22;671;48.972;9.276;2023-03-23T04:01:29;14.20;1.00
1355;DHT22;671;48.972;9.276;2023-03-23T04:03:55;14.20;1.00
1355;DHT22;671;48.972;9.276;2023-03-23T04:06:22;14.20;1.00
1355;DHT22;671;48.972;9.276;2023-03-23T04:08:49;14.20;1.00
1355;DHT22;671;48.972;9.276;2023-03-23T04:11:15;14.20;1.00
1355;DHT22;671;48.972;9.276;2023-03-23T04:13:42;14.20;1.00
1355;DHT22;671;48.972;9.276;2023-03-23T04:16:08;14.20;1.00
1355;DHT22;671;48.972;9.276;2023-03-23T04:18:35;14.20;1.00
1355;DHT22;671;48.972;9.276;2023-03-23T04:21:03;14.20;1.00
1355;DHT22;671;48.972;9.276;2023-03-23T04:23:31;14.20;1.00
1355;DHT22;671;48.972;9.276;2023-03-23T04:25:59;14.20;1.00
1355;DHT22;671;48.972;9.276;2023-03-23T04:28:26;14.20;1.00
1355;DHT22;671;48.972;9.276;2023-03-23T04:30:54;14.20;1.00
1355;DHT22;671;48.972;9.276;2023-03-23T04:33:25;14.20;1.00
1355;DHT22;671;48.972;9.276;2023-03-23T04:35:53;14.20;1.00
1355;DHT22;671;48.972;9.276;2023-03-23T04:38:21;14.20;1.00
1355;DHT22;671;48.972;9.276;2023-03-23T04:40:50;14.20;1.00
1355;DHT22;671;48.972;9.276;2023-03-23T04:43:18;14.20;1.00
1355;DHT22;671;48.972;9.276;2023-03-23T04:45:56;14.20;1.00
1355;DHT22;671;48.972;9.276;2023-03-23T04:48:26;14.30;1.00
1355;DHT22;671;48.972;9.276;2023-03-23T04:50:54;14.20;1.00
1355;DHT22;671;48.972;9.276;2023-03-23T04:53:20;14.20;1.00
1355;DHT22;671;48.972;9.276;2023-03-23T04:55:48;14.30;1.00
1355;DHT22;671;48.972;9.276;2023-03-23T04:58:15;14.20;1.00
1355;DHT22;671;48.972;9.276;2023-03-23T05:00:42;14.30;1.00
1355;DHT22;671;48.972;9.276;2023-03-23T05:03:19;14.20;1.00
1355;DHT22;671;48.972;9.276;2023-03-23T05:05:46;14.20;1.00
1355;DHT22;671;48.972;9.276;2023-03-23T05:08:19;14.30;1.00
1355;DHT22;671;48.972;9.276;2023-03-23T05:10:54;14.30;1.00
1355;DHT22;671;48.972;9.276;2023-03-23T05:13:21;14.30;1.00
1355;DHT22;671;48.972;9.276;2023-03-23T05:15:48;14.30;1.00
1355;DHT22;671;48.972;9.276;2023-03-23T05:18:15;14.30;1.00
1355;DHT22;671;48.972;9.276;2023-03-23T05:20:42;14.30;1.00
1355;DHT22;671;48.972;9.276;2023-03-23T05:23:09;14.30;1.00
1355;DHT22;671;48.972;9.276;2023-03-23T05:25:36;14.30;1.00
1355;DHT22;671;48.972;9.276;2023-03-23T05:28:08;14.30;1.00
1355;DHT22;671;48.972;9.276;2023-03-23T05:30:35;14.30;1.00
1355;DHT22;671;48.972;9.276;2023-03-23T05:33:01;14.30;1.00
1355;DHT22;671;48.972;9.276;2023-03-23T05:35:29;14.30;1.00
1355;DHT22;671;48.972;9.276;2023-03-23T05:37:55;14.30;1.00
1355;DHT22;671;48.972;9.276;2023-03-23T05:40:23;14.40;1.00
1355;DHT22;671;48.972;9.276;2023-03-23T05:42:52;14.40;1.00
1355;DHT22;671;48.972;9.276;2023-03-23T05:45:19;14.40;1.00
1355;DHT22;671;48.972;9.276;2023-03-23T05:47:46;14.40;1.00
1355;DHT22;671;48.972;9.276;2023-03-23T05:50:13;14.40;1.00
1355;DHT22;671;48.972;9.276;2023-03-23T05:52:39;14.50;1.00
1355;DHT22;671;48.972;9.276;2023-03-23T05:55:07;14.50;1.00
1355;DHT22;671;48.972;9.276;2023-03-23T05:57:34;14.50;1.00
1355;DHT22;671;48.972;9.276;2023-03-23T06:00:01;14.50;1.00
1355;DHT22;671;48.972;9.276;2023-03-23T06:02:40;14.60;1.00
1355;DHT22;671;48.972;9.276;2023-03-23T06:05:10;14.60;1.00
1355;DHT22;671;48.972;9.276;2023-03-23T06:07:36;14.60;1.00
1355;DHT22;671;48.972;9.276;2023-03-23T06:10:05;14.60;1.00
1355;DHT22;671;48.972;9.276;2023-03-23T06:12:33;14.70;1.00
1355;DHT22;671;48.972;9.276;2023-03-23T06:15:00;14.70;1.00
1355;DHT22;671;48.972;9.276;2023-03-23T06:17:26;14.70;1.00
1355;DHT22;671;48.972;9.276;2023-03-23T06:19:53;14.80;1.00
1355;DHT22;671;48.972;9.276;2023-03-23T06:22:20;14.80;1.00
1355;DHT22;671;48.972;9.276;2023-03-23T06:24:46;14.80;1.00
1355;DHT22;671;48.972;9.276;2023-03-23T06:27:13;14.80;1.00
1355;DHT22;671;48.972;9.276;2023-03-23T06:29:40;14.80;1.00
1355;DHT22;671;48.972;9.276;2023-03-23T06:32:06;14.80;1.00
1355;DHT22;671;48.972;9.276;2023-03-23T06:34:33;14.80;1.00
1355;DHT22;671;48.972;9.276;2023-03-23T06:36:59;14.90;1.00
1355;DHT22;671;48.972;9.276;2023-03-23T06:39:26;14.90;1.00
1355;DHT22;671;48.972;9.276;2023-03-23T06:41:53;14.90;1.00
1355;DHT22;671;48.972;9.276;2023-03-23T06:44:20;14.90;1.00
1355;DHT22;671;48.972;9.276;2023-03-23T06:46:46;14.90;1.00
1355;DHT22;671;48.972;9.276;2023-03-23T06:49:14;15.00;1.00
1355;DHT22;671;48.972;9.276;2023-03-23T06:51:41;15.00;1.00
1355;DHT22;671;48.972;9.276;2023-03-23T06:54:10;15.10;1.00
1355;DHT22;671;48.972;9.276;2023-03-23T06:56:36;15.20;86.10
1355;DHT22;671;48.972;9.276;2023-03-23T06:59:03;15.30;1.00
1355;DHT22;671;48.972;9.276;2023-03-23T07:01:29;15.40;1.00
1355;DHT22;671;48.972;9.276;2023-03-23T07:03:56;15.40;1.00
1355;DHT22;671;48.972;9.276;2023-03-23T07:06:23;15.50;1.00
1355;DHT22;671;48.972;9.276;2023-03-23T07:08:49;15.40;1.00
1355;DHT22;671;48.972;9.276;2023-03-23T07:11:16;15.40;1.00
1355;DHT22;671;48.972;9.276;2023-03-23T07:13:42;15.40;1.00
1355;DHT22;671;48.972;9.276;2023-03-23T07:16:09;15.40;1.00
1355;DHT22;671;48.972;9.276;2023-03-23T07:18:37;15.40;1.00
1355;DHT22;671;48.972;9.276;2023-03-23T07:21:03;15.40;1.00
1355;DHT22;671;48.972;9.276;2023-03-23T07:23:30;15.40;1.00
1355;DHT22;671;48.972;9.276;2023-03-23T07:26:16;15.50;1.00
1355;DHT22;671;48.972;9.276;2023-03-23T07:40:33;15.40;1.00
1355;DHT22;671;48.972;9.276;2023-03-23T07:43:01;15.40;1.00
1355;DHT22;671;48.972;9.276;2023-03-23T07:45:28;15.40;14.80
1355;DHT22;671;48.972;9.276;2023-03-23T07:47:55;15.40;99.90
1355;DHT22;671;48.972;9.276;2023-03-23T07:50:22;15.40;66.00
1355;DHT22;671;48.972;9.276;2023-03-23T07:52:55;15.50;22.70
1355;DHT22;671;48.972;9.276;2023-03-23T07:55:22;15.60;98.90
1355;DHT22;671;48.972;9.276;2023-03-23T07:57:52;15.80;44.90
1355;DHT22;671;48.972;9.276;2023-03-23T08:00:20;15.90;1.00
1355;DHT22;671;48.972;9.276;2023-03-23T08:02:57;16.10;1.00
1355;DHT22;671;48.972;9.276;2023-03-23T08:05:25;16.30;1.00
1355;DHT22;671;48.972;9.276;2023-03-23T08:07:53;16.30;1.00
1355;DHT22;671;48.972;9.276;2023-03-23T08:10:22;16.30;1.00
1355;DHT22;671;48.972;9.276;2023-03-23T08:12:52;16.40;1.00
1355;DHT22;671;48.972;9.276;2023-03-23T08:15:19;16.30;1.00
1355;DHT22;671;48.972;9.276;2023-03-23T08:17:48;16.40;1.00
1355;DHT22;671;48.972;9.276;2023-03-23T08:20:15;16.40;1.00
1355;DHT22;671;48.972;9.276;2023-03-23T08:22:45;16.40;1.00
1355;DHT22;671;48.972;9.276;2023-03-23T08:25:13;16.30;76.20
1355;DHT22;671;48.972;9.276;2023-03-23T08:27:40;16.30;99.90
1355;DHT22;671;48.972;9.276;2023-03-23T08:30:16;16.30;99.90
1355;DHT22;671;48.972;9.276;2023-03-23T08:32:43;16.40;99.90
1355;DHT22;671;48.972;9.276;2023-03-23T08:35:11;16.40;99.90
1355;DHT22;671;48.972;9.276;2023-03-23T08:37:38;16.50;99.90
1355;DHT22;671;48.972;9.276;2023-03-23T08:40:06;16.50;99.90
1355;DHT22;671;48.972;9.276;2023-03-23T08:42:41;16.60;99.90
1355;DHT22;671;48.972;9.276;2023-03-23T08:45:09;16.60;99.90
1355;DHT22;671;48.972;9.276;2023-03-23T08:47:36;16.60;99.90
1355;DHT22;671;48.972;9.276;2023-03-23T08:50:05;16.60;99.90
1355;DHT22;671;48.972;9.276;2023-03-23T08:52:32;16.50;99.90
1355;DHT22;671;48.972;9.276;2023-03-23T08:54:59;16.40;99.90
1355;DHT22;671;48.972;9.276;2023-03-23T08:57:26;16.40;99.90
1355;DHT22;671;48.972;9.276;2023-03-23T08:59:52;16.40;1.00
1355;DHT22;671;48.972;9.276;2023-03-23T09:02:20;16.30;1.00
1355;DHT22;671;48.972;9.276;2023-03-23T09:04:47;16.30;1.00
1355;DHT22;671;48.972;9.276;2023-03-23T09:07:15;16.20;1.00
1355;DHT22;671;48.972;9.276;2023-03-23T09:09:42;16.20;1.00
1355;DHT22;671;48.972;9.276;2023-03-23T09:12:09;16.20;1.00
1355;DHT22;671;48.972;9.276;2023-03-23T09:14:37;16.30;99.20
1355;DHT22;671;48.972;9.276;2023-03-23T09:17:05;16.30;99.90
1355;DHT22;671;48.972;9.276;2023-03-23T09:19:33;16.40;99.90
1355;DHT22;671;48.972;9.276;2023-03-23T09:22:00;16.40;99.90
1355;DHT22;671;48.972;9.276;2023-03-23T09:24:26;16.40;99.90
1355;DHT22;671;48.972;9.276;2023-03-23T09:26:53;16.50;99.90
1355;DHT22;671;48.972;9.276;2023-03-23T09:29:19;16.50;99.90
1355;DHT22;671;48.972;9.276;2023-03-23T09:31:47;16.50;99.90
1355;DHT22;671;48.972;9.276;2023-03-23T09:34:14;16.50;1.00
1355;DHT22;671;48.972;9.276;2023-03-23T09:36:42;16.50;1.00
1355;DHT22;671;48.972;9.276;2023-03-23T09:39:09;16.50;1.00
1355;DHT22;671;48.972;9.276;2023-03-23T09:42:12;16.40;1.00
1355;DHT22;671;48.972;9.276;2023-03-23T09:48:02;16.30;1.00
1355;DHT22;671;48.972;9.276;2023-03-23T09:50:32;16.40;1.00
1355;DHT22;671;48.972;9.276;2023-03-23T09:53:12;16.40;1.00
1355;DHT22;671;48.972;9.276;2023-03-23T09:55:40;16.30;1.00
1355;DHT22;671;48.972;9.276;2023-03-23T10:01:08;16.20;1.00
1355;DHT22;671;48.972;9.276;2023-03-23T10:03:42;16.20;1.00
1355;DHT22;671;48.972;9.276;2023-03-23T10:06:14;16.20;99.90
1355;DHT22;671;48.972;9.276;2023-03-23T10:08:46;16.20;99.90
1355;DHT22;671;48.972;9.276;2023-03-23T10:14:08;16.20;76.70
1355;DHT22;671;48.972;9.276;2023-03-23T10:16:54;16.20;1.00
1355;DHT22;671;48.972;9.276;2023-03-23T10:19:27;16.20;99.90
1355;DHT22;671;48.972;9.276;2023-03-23T10:22:02;16.10;1.00
1355;DHT22;671;48.972;9.276;2023-03-23T10:24:46;16.00;1.00
1355;DHT22;671;48.972;9.276;2023-03-23T10:27:23;16.00;1.00
1355;DHT22;671;48.972;9.276;2023-03-23T10:29:57;16.00;11.10
1355;DHT22;671;48.972;9.276;2023-03-23T10:32:58;16.10;99.90
1355;DHT22;671;48.972;9.276;2023-03-23T10:38:22;16.40;1.00
1355;DHT22;671;48.972;9.276;2023-03-23T10:40:57;16.50;99.90
1355;DHT22;671;48.972;9.276;2023-03-23T10:43:25;16.60;99.90
1355;DHT22;671;48.972;9.276;2023-03-23T10:49:02;17.10;1.00
1355;DHT22;671;48.972;9.276;2023-03-23T10:51:34;17.30;1.00
1355;DHT22;671;48.972;9.276;2023-03-23T10:54:04;17.40;1.00
1355;DHT22;671;48.972;9.276;2023-03-23T10:56:41;17.40;99.90
1355;DHT22;671;48.972;9.276;2023-03-23T10:59:34;17.40;99.90
1355;DHT22;671;48.972;9.276;2023-03-23T11:02:02;17.50;1.00
1355;DHT22;671;48.972;9.276;2023-03-23T11:04:30;17.40;99.90
1355;DHT22;671;48.972;9.276;2023-03-23T11:07:00;17.30;89.40
1355;DHT22;671;48.972;9.276;2023-03-23T11:09:38;17.30;70.10
1355;DHT22;671;48.972;9.276;2023-03-23T11:12:16;17.20;65.40
1355;DHT22;671;48.972;9.276;2023-03-23T11:14:43;17.10;73.30
1355;DHT22;671;48.972;9.276;2023-03-23T11:17:25;17.00;1.00
1355;DHT22;671;48.972;9.276;2023-03-23T11:19:53;17.00;76.40
1355;DHT22;671;48.972;9.276;2023-03-23T11:22:26;17.00;62.30
1355;DHT22;671;48.972;9.276;2023-03-23T11:24:55;16.90;1.00
1355;DHT22;671;48.972;9.276;2023-03-23T11:27:24;16.90;1.00
1355;DHT22;671;48.972;9.276;2023-03-23T11:29:54;16.90;1.00
1355;DHT22;671;48.972;9.276;2023-03-23T11:32:26;16.90;1.00
1355;DHT22;671;48.972;9.276;2023-03-23T11:34:59;16.80;1.00
1355;DHT22;671;48.972;9.276;2023-03-23T11:37:37;16.90;99.90
1355;DHT22;671;48.972;9.276;2023-03-23T11:42:38;17.10;99.90
1355;DHT22;671;48.972;9.276;2023-03-23T11:50:53;17.30;1.00
1355;DHT22;671;48.972;9.276;2023-03-23T11:58:32;17.30;1.00
1355;DHT22;671;48.972;9.276;2023-03-23T12:01:21;17.30;1.00
1355;DHT22;671;48.972;9.276;2023-03-23T12:04:13;17.30;1.00
1355;DHT22;671;48.972;9.276;2023-03-23T12:06:47;17.20;1.00
1355;DHT22;671;48.972;9.276;2023-03-23T12:13:12;17.10;1.00
1355;DHT22;671;48.972;9.276;2023-03-23T12:15:11;16.90;1.00
1355;DHT22;671;48.972;9.276;2023-03-23T12:23:40;17.10;1.00
1355;DHT22;671;48.972;9.276;2023-03-23T12:26:25;17.10;1.00
1355;DHT22;671;48.972;9.276;2023-03-23T12:31:44;17.40;1.00
1355;DHT22;671;48.972;9.276;2023-03-23T12:48:11;18.40;1.00
1355;DHT22;671;48.972;9.276;2023-03-23T12:53:31;18.60;1.00
1355;DHT22;671;48.972;9.276;2023-03-23T12:58:40;18.70;1.00
1355;DHT22;671;48.972;9.276;2023-03-23T13:01:17;18.70;99.90
1355;DHT22;671;48.972;9.276;2023-03-23T13:03:53;18.80;99.90
1355;DHT22;671;48.972;9.276;2023-03-23T13:06:42;18.70;99.90
1355;DHT22;671;48.972;9.276;2023-03-23T13:09:28;18.90;99.90
1355;DHT22;671;48.972;9.276;2023-03-23T13:11:58;18.90;99.90
1355;DHT22;671;48.972;9.276;2023-03-23T13:14:43;19.00;99.90
1355;DHT22;671;48.972;9.276;2023-03-23T13:17:38;19.10;99.90
1355;DHT22;671;48.972;9.276;2023-03-23T13:23:31;19.00;99.90
1355;DHT22;671;48.972;9.276;2023-03-23T13:26:06;19.00;11.40
1355;DHT22;671;48.972;9.276;2023-03-23T13:28:58;19.00;1.00
1355;DHT22;671;48.972;9.276;2023-03-23T13:31:36;19.00;1.00
1355;DHT22;671;48.972;9.276;2023-03-23T13:34:10;19.00;1.00
1355;DHT22;671;48.972;9.276;2023-03-23T13:36:44;19.00;1.00
1355;DHT22;671;48.972;9.276;2023-03-23T13:39:39;19.00;1.00
1355;DHT22;671;48.972;9.276;2023-03-23T13:47:27;19.00;99.90
1355;DHT22;671;48.972;9.276;2023-03-23T13:50:00;19.10;1.00
1355;DHT22;671;48.972;9.276;2023-03-23T14:11:01;18.80;1.00
1355;DHT22;671;48.972;9.276;2023-03-23T14:16:05;18.90;70.00
1355;DHT22;671;48.972;9.276;2023-03-23T14:18:41;18.90;1.00
1355;DHT22;671;48.972;9.276;2023-03-23T14:21:17;18.80;1.00
1355;DHT22;671;48.972;9.276;2023-03-23T14:23:47;18.90;1.00
1355;DHT22;671;48.972;9.276;2023-03-23T14:26:19;18.80;1.00
1355;DHT22;671;48.972;9.276;2023-03-23T14:28:50;18.80;1.00
1355;DHT22;671;48.972;9.276;2023-03-23T14:31:24;18.90;1.00
1355;DHT22;671;48.972;9.276;2023-03-23T14:33:51;18.90;1.00
1355;DHT22;671;48.972;9.276;2023-03-23T14:36:28;18.90;1.00
1355;DHT22;671;48.972;9.276;2023-03-23T14:41:42;18.80;1.00
1355;DHT22;671;48.972;9.276;2023-03-23T14:44:16;18.70;1.00
1355;DHT22;671;48.972;9.276;2023-03-23T14:46:45;18.60;1.00
1355;DHT22;671;48.972;9.276;2023-03-23T14:49:14;18.60;1.00
1355;DHT22;671;48.972;9.276;2023-03-23T14:51:48;18.50;1.00
1355;DHT22;671;48.972;9.276;2023-03-23T14:54:15;18.50;99.90
1355;DHT22;671;48.972;9.276;2023-03-23T14:56:42;18.40;99.90
1355;DHT22;671;48.972;9.276;2023-03-23T14:59:10;18.40;99.90
1355;DHT22;671;48.972;9.276;2023-03-23T15:01:37;18.40;99.90
1355;DHT22;671;48.972;9.276;2023-03-23T15:04:16;18.30;99.90
1355;DHT22;671;48.972;9.276;2023-03-23T15:06:46;18.40;95.40
1355;DHT22;671;48.972;9.276;2023-03-23T15:09:17;18.40;50.60
1355;DHT22;671;48.972;9.276;2023-03-23T15:11:53;18.40;23.20
1355;DHT22;671;48.972;9.276;2023-03-23T15:14:27;18.30;55.00
1355;DHT22;671;48.972;9.276;2023-03-23T15:16:56;18.20;99.90
1355;DHT22;671;48.972;9.276;2023-03-23T15:19:42;18.10;99.90
1355;DHT22;671;48.972;9.276;2023-03-23T15:22:21;18.10;99.90
1355;DHT22;671;48.972;9.276;2023-03-23T15:24:48;18.00;99.90
1355;DHT22;671;48.972;9.276;2023-03-23T15:27:23;18.00;99.90
1355;DHT22;671;48.972;9.276;2023-03-23T15:29:59;18.00;99.90
1355;DHT22;671;48.972;9.276;2023-03-23T15:32:28;17.90;99.90
1355;DHT22;671;48.972;9.276;2023-03-23T15:34:56;17.80;99.90
1355;DHT22;671;48.972;9.276;2023-03-23T15:37:33;17.70;99.90
1355;DHT22;671;48.972;9.276;2023-03-23T15:40:00;17.70;99.90
1355;DHT22;671;48.972;9.276;2023-03-23T15:42:32;17.60;1.00
1355;DHT22;671;48.972;9.276;2023-03-23T15:45:26;17.50;1.00
1355;DHT22;671;48.972;9.276;2023-03-23T15:47:53;17.50;1.00
1355;DHT22;671;48.972;9.276;2023-03-23T15:50:40;17.50;1.00
1355;DHT22;671;48.972;9.276;2023-03-23T15:55:54;17.40;1.00
1355;DHT22;671;48.972;9.276;2023-03-23T15:58:21;17.40;99.90
1355;DHT22;671;48.972;9.276;2023-03-23T16:00:49;17.30;99.90
1355;DHT22;671;48.972;9.276;2023-03-23T16:03:22;17.20;99.90
1355;DHT22;671;48.972;9.276;2023-03-23T16:05:50;17.20;99.90
1355;DHT22;671;48.972;9.276;2023-03-23T16:08:17;17.20;1.00
1355;DHT22;671;48.972;9.276;2023-03-23T16:10:43;17.20;99.90
1355;DHT22;671;48.972;9.276;2023-03-23T16:13:10;17.20;1.00
1355;DHT22;671;48.972;9.276;2023-03-23T16:15:36;17.10;1.00
1355;DHT22;671;48.972;9.276;2023-03-23T16:18:03;17.00;1.00
1355;DHT22;671;48.972;9.276;2023-03-23T16:20:29;17.00;1.00
1355;DHT22;671;48.972;9.276;2023-03-23T16:22:58;17.00;1.00
1355;DHT22;671;48.972;9.276;2023-03-23T16:25:24;17.00;1.00
1355;DHT22;671;48.972;9.276;2023-03-23T16:27:51;16.90;99.90
1355;DHT22;671;48.972;9.276;2023-03-23T16:30:23;16.80;1.00
1355;DHT22;671;48.972;9.276;2023-03-23T16:32:50;16.70;93.90
1355;DHT22;671;48.972;9.276;2023-03-23T16:35:17;16.70;99.90
1355;DHT22;671;48.972;9.276;2023-03-23T16:37:49;16.60;1.00
1355;DHT22;671;48.972;9.276;2023-03-23T16:40:17;16.60;1.00
1355;DHT22;671;48.972;9.276;2023-03-23T16:42:44;16.50;1.00
1355;DHT22;671;48.972;9.276;2023-03-23T16:45:12;16.50;1.00
1355;DHT22;671;48.972;9.276;2023-03-23T16:47:39;16.40;1.00
1355;DHT22;671;48.972;9.276;2023-03-23T16:50:08;16.40;1.00
1355;DHT22;671;48.972;9.276;2023-03-23T16:52:38;16.40;99.90
1355;DHT22;671;48.972;9.276;2023-03-23T16:55:05;16.30;99.90
1355;DHT22;671;48.972;9.276;2023-03-23T16:57:33;16.30;99.90
1355;DHT22;671;48.972;9.276;2023-03-23T17:00:01;16.20;1.00
1355;DHT22;671;48.972;9.276;2023-03-23T17:02:28;16.10;1.00
1355;DHT22;671;48.972;9.276;2023-03-23T17:04:55;16.00;1.00
1355;DHT22;671;48.972;9.276;2023-03-23T17:07:21;15.90;63.30
1355;DHT22;671;48.972;9.276;2023-03-23T17:09:48;15.80;63.00
1355;DHT22;671;48.972;9.276;2023-03-23T17:12:15;15.70;63.20
1355;DHT22;671;48.972;9.276;2023-03-23T17:14:41;15.70;99.90
1355;DHT22;671;48.972;9.276;2023-03-23T17:17:08;15.60;99.90
1355;DHT22;671;48.972;9.276;2023-03-23T17:19:35;15.60;99.90
1355;DHT22;671;48.972;9.276;2023-03-23T17:22:02;15.50;99.90
1355;DHT22;671;48.972;9.276;2023-03-23T17:24:28;15.40;99.90
1355;DHT22;671;48.972;9.276;2023-03-23T17:26:55;15.40;1.00
1355;DHT22;671;48.972;9.276;2023-03-23T17:29:22;15.40;1.00
1355;DHT22;671;48.972;9.276;2023-03-23T17:31:49;15.30;1.00
1355;DHT22;671;48.972;9.276;2023-03-23T17:34:16;15.30;1.00
1355;DHT22;671;48.972;9.276;2023-03-23T17:36:43;15.30;1.00
1355;DHT22;671;48.972;9.276;2023-03-23T17:39:09;15.30;1.00
1355;DHT22;671;48.972;9.276;2023-03-23T17:41:36;15.30;1.00
1355;DHT22;671;48.972;9.276;2023-03-23T17:44:02;15.30;1.00
1355;DHT22;671;48.972;9.276;2023-03-23T17:46:29;15.20;1.00
1355;DHT22;671;48.972;9.276;2023-03-23T17:48:55;15.20;1.00
1355;DHT22;671;48.972;9.276;2023-03-23T17:51:21;15.20;1.00
1355;DHT22;671;48.972;9.276;2023-03-23T17:53:48;15.20;1.00
1355;DHT22;671;48.972;9.276;2023-03-23T17:56:14;15.20;1.00
1355;DHT22;671;48.972;9.276;2023-03-23T17:58:41;15.20;1.00
1355;DHT22;671;48.972;9.276;2023-03-23T18:01:07;15.20;1.00
1355;DHT22;671;48.972;9.276;2023-03-23T18:03:34;15.20;1.00
1355;DHT22;671;48.972;9.276;2023-03-23T18:06:03;15.20;1.00
1355;DHT22;671;48.972;9.276;2023-03-23T18:08:31;15.30;1.00
1355;DHT22;671;48.972;9.276;2023-03-23T18:10:58;15.20;1.00
1355;DHT22;671;48.972;9.276;2023-03-23T18:13:25;15.30;99.90
1355;DHT22;671;48.972;9.276;2023-03-23T18:15:54;15.30;1.00
1355;DHT22;671;48.972;9.276;2023-03-23T18:18:21;15.30;99.90
1355;DHT22;671;48.972;9.276;2023-03-23T18:21:00;15.40;1.00
1355;DHT22;671;48.972;9.276;2023-03-23T18:23:27;15.40;99.90
1355;DHT22;671;48.972;9.276;2023-03-23T18:25:54;15.50;1.00
1355;DHT22;671;48.972;9.276;2023-03-23T18:28:21;15.50;1.00
1355;DHT22;671;48.972;9.276;2023-03-23T18:30:48;15.50;1.00
1355;DHT22;671;48.972;9.276;2023-03-23T18:33:16;15.60;1.00
1355;DHT22;671;48.972;9.276;2023-03-23T18:35:42;15.70;1.00
1355;DHT22;671;48.972;9.276;2023-03-23T18:38:10;15.70;1.00
1355;DHT22;671;48.972;9.276;2023-03-23T18:40:42;15.70;99.90
1355;DHT22;671;48.972;9.276;2023-03-23T18:43:09;15.70;99.90
1355;DHT22;671;48.972;9.276;2023-03-23T18:45:36;15.70;93.80
1355;DHT22;671;48.972;9.276;2023-03-23T18:48:04;15.70;1.00
1355;DHT22;671;48.972;9.276;2023-03-23T18:50:31;15.70;1.00
1355;DHT22;671;48.972;9.276;2023-03-23T18:52:58;15.80;1.00
1355;DHT22;671;48.972;9.276;2023-03-23T18:55:25;15.80;1.00